PWSweather.com
Personal Weather Stations
Station Observations
SPARKSRC
St. Petersburg, FL 33716

St. Petersburg, FL 33716

Lat: 27.876101, Lon: -82.657194

Elevation: 13

Station Type: Zephyr PWS-1000TD

High Low Average
Temperature 70.5°F21.4°C 70.3°F21.3°C 70.4°F21.3°C
Dew Point 70.3°F21.3°C 70.1°F21.2°C 70.2°F21.2°C
Winds 9.8 mph 15.8 kmh 7.6 mph 12.2 kmh 9.0 mph NE14.5 kmh NE
Wind Gusts 15.9 mph25.6 kmh 14.5 mph23.3 kmh 15.0 mph24.1 kmh
Humidity 99% 99% 99%
Pressure 30.07 in1018.3 mb 30.06 in1017.9 mb -
Precipitation 0.00 in0.0 mm - -
Hour Temp Dew Point Humidity Winds Wind Gusts Pressure Precip Precip Rate Daily Precip Total
12:00 AM 70.2°F21.2°C 69.9°F21.1°C 99% 5.4 mph NE8.7 kmh NE 13.6 mph21.9 kmh 30.07 in1018.3 mb 0.00 in0.0 mm 0.00 in/hr0.0 mm/hr 0.33 in8.4 mm
12:05 AM 70.0°F21.1°C 69.7°F20.9°C 99% 6.9 mph NE11.1 kmh NE 13.0 mph20.9 kmh 30.07 in1018.3 mb 0.00 in0.0 mm 0.00 in/hr0.0 mm/hr 0.00 in0.0 mm
12:10 AM 70.0°F21.1°C 69.7°F20.9°C 99% 7.6 mph NE12.2 kmh NE 13.6 mph21.9 kmh 30.08 in1018.6 mb 0.00 in0.0 mm 0.00 in/hr0.0 mm/hr 0.00 in0.0 mm
12:15 AM 70.2°F21.2°C 69.9°F21.1°C 99% 6.0 mph NE9.7 kmh NE 13.6 mph21.9 kmh 30.08 in1018.6 mb 0.00 in0.0 mm 0.00 in/hr0.0 mm/hr 0.00 in0.0 mm
12:20 AM 70.2°F21.2°C 69.9°F21.1°C 99% 8.3 mph NE13.4 kmh NE 13.0 mph20.9 kmh 30.07 in1018.3 mb 0.00 in0.0 mm 0.00 in/hr0.0 mm/hr 0.00 in0.0 mm
12:25 AM 70.2°F21.2°C 69.9°F21.1°C 99% 8.3 mph NE13.4 kmh NE 13.0 mph20.9 kmh 30.08 in1018.6 mb 0.00 in0.0 mm 0.00 in/hr0.0 mm/hr 0.00 in0.0 mm
12:30 AM 70.2°F21.2°C 69.9°F21.1°C 99% 6.9 mph NE11.1 kmh NE 12.1 mph19.5 kmh 30.08 in1018.6 mb 0.00 in0.0 mm 0.00 in/hr0.0 mm/hr 0.00 in0.0 mm
12:35 AM 70.2°F21.2°C 69.9°F21.1°C 99% 8.3 mph NE13.4 kmh NE 15.9 mph25.6 kmh 30.08 in1018.6 mb 0.00 in0.0 mm 0.00 in/hr0.0 mm/hr 0.00 in0.0 mm
12:40 AM 70.2°F21.2°C 69.9°F21.1°C 99% 6.0 mph NE9.7 kmh NE 15.9 mph25.6 kmh 30.08 in1018.6 mb 0.00 in0.0 mm 0.00 in/hr0.0 mm/hr 0.00 in0.0 mm
12:45 AM 70.2°F21.2°C 69.9°F21.1°C 99% 9.2 mph ENE14.8 kmh ENE 14.5 mph23.3 kmh 30.08 in1018.6 mb 0.00 in0.0 mm 0.00 in/hr0.0 mm/hr 0.00 in0.0 mm
12:50 AM 70.3°F21.3°C 70.1°F21.2°C 99% 9.2 mph ENE14.8 kmh ENE 14.5 mph23.3 kmh 30.07 in1018.3 mb 0.00 in0.0 mm 0.00 in/hr0.0 mm/hr 0.00 in0.0 mm
12:55 AM 70.3°F21.3°C 70.1°F21.2°C 99% 9.8 mph ENE15.8 kmh ENE 15.2 mph24.5 kmh 30.08 in1018.6 mb 0.00 in0.0 mm 0.00 in/hr0.0 mm/hr 0.00 in0.0 mm
01:00 AM 70.3°F21.3°C 70.1°F21.2°C 99% 9.2 mph ENE14.8 kmh ENE 15.9 mph25.6 kmh 30.07 in1018.3 mb 0.00 in0.0 mm 0.00 in/hr0.0 mm/hr 0.00 in0.0 mm
01:05 AM 70.5°F21.4°C 70.3°F21.3°C 99% 7.6 mph NE12.2 kmh NE 15.9 mph25.6 kmh 30.07 in1018.3 mb 0.00 in0.0 mm 0.00 in/hr0.0 mm/hr 0.00 in0.0 mm
01:10 AM 70.5°F21.4°C 70.3°F21.3°C 99% 8.3 mph NE13.4 kmh NE 14.5 mph23.3 kmh 30.06 in1017.9 mb 0.00 in0.0 mm 0.00 in/hr0.0 mm/hr 0.00 in0.0 mm
01:15 AM 70.5°F21.4°C 70.3°F21.3°C 99% 8.3 mph NE13.4 kmh NE 14.5 mph23.3 kmh 30.07 in1018.3 mb 0.00 in0.0 mm 0.00 in/hr0.0 mm/hr 0.00 in0.0 mm
01:20 AM 70.3°F21.3°C 70.1°F21.2°C 99% 9.8 mph ENE15.8 kmh ENE 14.5 mph23.3 kmh 30.07 in1018.3 mb 0.00 in0.0 mm 0.00 in/hr0.0 mm/hr 0.00 in0.0 mm
01:25 AM 70.5°F21.4°C 70.3°F21.3°C 99% 9.8 mph ENE15.8 kmh ENE 15.2 mph24.5 kmh 30.06 in1017.9 mb 0.00 in0.0 mm 0.00 in/hr0.0 mm/hr 0.00 in0.0 mm
01:30 AM 70.5°F21.4°C 70.3°F21.3°C 99% 8.3 mph E13.4 kmh E 15.2 mph24.5 kmh 30.06 in1017.9 mb 0.00 in0.0 mm 0.00 in/hr0.0 mm/hr 0.00 in0.0 mm
01:35 AM 70.5°F21.4°C 70.3°F21.3°C 99% 9.2 mph ENE14.8 kmh ENE 15.2 mph24.5 kmh 30.06 in1017.9 mb 0.00 in0.0 mm 0.00 in/hr0.0 mm/hr 0.00 in0.0 mm
01:40 AM 70.7°F21.5°C 70.4°F21.3°C 99% 7.6 mph ENE12.2 kmh ENE 14.5 mph23.3 kmh 30.06 in1017.9 mb 0.00 in0.0 mm 0.00 in/hr0.0 mm/hr 0.00 in0.0 mm
01:45 AM 70.5°F21.4°C 70.3°F21.3°C 99% 0.7 mph ENE1.1 kmh ENE 14.5 mph23.3 kmh 30.07 in1018.3 mb 0.00 in0.0 mm 0.00 in/hr0.0 mm/hr 0.00 in0.0 mm
01:50 AM 70.5°F21.4°C 70.3°F21.3°C 99% 6.9 mph ENE11.1 kmh ENE 15.2 mph24.5 kmh 30.06 in1017.9 mb 0.00 in0.0 mm 0.00 in/hr0.0 mm/hr 0.00 in0.0 mm
01:55 AM 70.7°F21.5°C 70.4°F21.3°C 99% 7.6 mph ENE12.2 kmh ENE 15.9 mph25.6 kmh 30.06 in1017.9 mb 0.00 in0.0 mm 0.00 in/hr0.0 mm/hr 0.00 in0.0 mm
02:00 AM 70.7°F21.5°C 70.4°F21.3°C 99% 8.3 mph ENE13.4 kmh ENE 17.4 mph28.0 kmh 30.06 in1017.9 mb 0.00 in0.0 mm 0.00 in/hr0.0 mm/hr 0.00 in0.0 mm
02:05 AM 70.7°F21.5°C 70.4°F21.3°C 99% 8.3 mph ENE13.4 kmh ENE 17.4 mph28.0 kmh 30.06 in1017.9 mb 0.00 in0.0 mm 0.00 in/hr0.0 mm/hr 0.00 in0.0 mm
02:10 AM 70.7°F21.5°C 70.4°F21.3°C 99% 7.6 mph NE12.2 kmh NE 17.4 mph28.0 kmh 30.06 in1017.9 mb 0.00 in0.0 mm 0.00 in/hr0.0 mm/hr 0.00 in0.0 mm
02:15 AM 70.7°F21.5°C 70.4°F21.3°C 99% 9.2 mph E14.8 kmh E 17.4 mph28.0 kmh 30.05 in1017.6 mb 0.00 in0.0 mm 0.00 in/hr0.0 mm/hr 0.00 in0.0 mm
02:20 AM 70.7°F21.5°C 70.4°F21.3°C 99% 9.2 mph E14.8 kmh E 17.4 mph28.0 kmh 30.05 in1017.6 mb 0.00 in0.0 mm 0.00 in/hr0.0 mm/hr 0.00 in0.0 mm
02:25 AM 70.7°F21.5°C 70.4°F21.3°C 99% 9.2 mph E14.8 kmh E 15.9 mph25.6 kmh 30.04 in1017.3 mb 0.00 in0.0 mm 0.00 in/hr0.0 mm/hr 0.00 in0.0 mm
02:30 AM 70.9°F21.6°C 70.6°F21.4°C 99% 8.3 mph ENE13.4 kmh ENE 15.9 mph25.6 kmh 30.05 in1017.6 mb 0.00 in0.0 mm 0.00 in/hr0.0 mm/hr 0.00 in0.0 mm
02:35 AM 70.9°F21.6°C 70.6°F21.4°C 99% 9.8 mph NE15.8 kmh NE 15.2 mph24.5 kmh 30.03 in1016.9 mb 0.00 in0.0 mm 0.00 in/hr0.0 mm/hr 0.00 in0.0 mm
02:40 AM 70.7°F21.5°C 70.4°F21.3°C 99% 6.9 mph NE11.1 kmh NE 13.6 mph21.9 kmh 30.04 in1017.3 mb 0.00 in0.0 mm 0.00 in/hr0.0 mm/hr 0.00 in0.0 mm
02:45 AM 70.9°F21.6°C 70.6°F21.4°C 99% 4.5 mph NE7.2 kmh NE 13.6 mph21.9 kmh 30.03 in1016.9 mb 0.00 in0.0 mm 0.00 in/hr0.0 mm/hr 0.00 in0.0 mm
02:50 AM 70.9°F21.6°C 70.6°F21.4°C 99% 7.6 mph E12.2 kmh E 13.6 mph21.9 kmh 30.03 in1016.9 mb 0.00 in0.0 mm 0.00 in/hr0.0 mm/hr 0.00 in0.0 mm
02:55 AM 70.9°F21.6°C 70.6°F21.4°C 99% 9.2 mph ENE14.8 kmh ENE 15.2 mph24.5 kmh 30.03 in1016.9 mb 0.00 in0.0 mm 0.00 in/hr0.0 mm/hr 0.00 in0.0 mm
03:00 AM 70.9°F21.6°C 70.6°F21.4°C 99% 6.0 mph NE9.7 kmh NE 15.2 mph24.5 kmh 30.03 in1016.9 mb 0.00 in0.0 mm 0.00 in/hr0.0 mm/hr 0.00 in0.0 mm
03:05 AM 70.7°F21.5°C 70.4°F21.3°C 99% 6.9 mph NE11.1 kmh NE 13.6 mph21.9 kmh 30.03 in1016.9 mb 0.00 in0.0 mm 0.00 in/hr0.0 mm/hr 0.00 in0.0 mm
03:10 AM 70.9°F21.6°C 70.6°F21.4°C 99% 7.6 mph ENE12.2 kmh ENE 12.1 mph19.5 kmh 30.02 in1016.6 mb 0.00 in0.0 mm 0.00 in/hr0.0 mm/hr 0.00 in0.0 mm
03:15 AM 70.9°F21.6°C 70.6°F21.4°C 99% 5.4 mph NE8.7 kmh NE 12.1 mph19.5 kmh 30.02 in1016.6 mb 0.00 in0.0 mm 0.00 in/hr0.0 mm/hr 0.00 in0.0 mm
03:20 AM 70.9°F21.6°C 70.6°F21.4°C 99% 5.4 mph NE8.7 kmh NE 11.4 mph18.3 kmh 30.01 in1016.3 mb 0.00 in0.0 mm 0.00 in/hr0.0 mm/hr 0.00 in0.0 mm
03:25 AM 70.5°F21.4°C 70.3°F21.3°C 99% 6.0 mph NE9.7 kmh NE 11.4 mph18.3 kmh 30.02 in1016.6 mb 0.00 in0.0 mm 0.00 in/hr0.0 mm/hr 0.00 in0.0 mm
03:30 AM 70.9°F21.6°C 70.6°F21.4°C 99% 6.9 mph ENE11.1 kmh ENE 10.7 mph17.2 kmh 30.01 in1016.3 mb 0.00 in0.0 mm 0.00 in/hr0.0 mm/hr 0.00 in0.0 mm
03:35 AM 71.1°F21.7°C 70.8°F21.6°C 99% 11.4 mph ENE18.3 kmh ENE 17.4 mph28.0 kmh 30.01 in1016.3 mb 0.00 in0.0 mm 0.00 in/hr0.0 mm/hr 0.00 in0.0 mm
03:40 AM 71.1°F21.7°C 70.8°F21.6°C 99% 5.4 mph E8.7 kmh E 17.4 mph28.0 kmh 30.02 in1016.6 mb 0.00 in0.0 mm 0.00 in/hr0.0 mm/hr 0.00 in0.0 mm
03:45 AM 71.1°F21.7°C 70.8°F21.6°C 99% 6.9 mph E11.1 kmh E 17.4 mph28.0 kmh 30.01 in1016.3 mb 0.00 in0.0 mm 0.00 in/hr0.0 mm/hr 0.00 in0.0 mm
03:50 AM 71.1°F21.7°C 70.8°F21.6°C 99% 9.2 mph E14.8 kmh E 14.5 mph23.3 kmh 30.01 in1016.3 mb 0.00 in0.0 mm 0.00 in/hr0.0 mm/hr 0.00 in0.0 mm
03:55 AM 71.1°F21.7°C 70.8°F21.6°C 99% 7.6 mph E12.2 kmh E 14.5 mph23.3 kmh 30.01 in1016.3 mb 0.00 in0.0 mm 0.00 in/hr0.0 mm/hr 0.00 in0.0 mm
04:00 AM 71.1°F21.7°C 70.8°F21.6°C 99% 9.2 mph ENE14.8 kmh ENE 15.2 mph24.5 kmh 30.00 in1015.9 mb 0.00 in0.0 mm 0.00 in/hr0.0 mm/hr 0.00 in0.0 mm
04:05 AM 71.1°F21.7°C 70.8°F21.6°C 99% 9.2 mph NE14.8 kmh NE 15.2 mph24.5 kmh 30.00 in1015.9 mb 0.00 in0.0 mm 0.00 in/hr0.0 mm/hr 0.00 in0.0 mm
04:10 AM 71.1°F21.7°C 70.8°F21.6°C 99% 10.7 mph NE17.2 kmh NE 16.8 mph27.0 kmh 29.99 in1015.6 mb 0.00 in0.0 mm 0.00 in/hr0.0 mm/hr 0.00 in0.0 mm
04:15 AM 71.1°F21.7°C 70.8°F21.6°C 99% 7.6 mph NE12.2 kmh NE 16.8 mph27.0 kmh 29.99 in1015.6 mb 0.00 in0.0 mm 0.00 in/hr0.0 mm/hr 0.00 in0.0 mm
04:20 AM 71.1°F21.7°C 70.8°F21.6°C 99% 8.3 mph ENE13.4 kmh ENE 14.5 mph23.3 kmh 29.99 in1015.6 mb 0.00 in0.0 mm 0.00 in/hr0.0 mm/hr 0.00 in0.0 mm
04:25 AM 71.1°F21.7°C 70.8°F21.6°C 99% 9.8 mph ENE15.8 kmh ENE 18.3 mph29.5 kmh 29.98 in1015.2 mb 0.00 in0.0 mm 0.00 in/hr0.0 mm/hr 0.00 in0.0 mm
04:30 AM 71.1°F21.7°C 70.8°F21.6°C 99% 13.6 mph ENE21.9 kmh ENE 18.3 mph29.5 kmh 29.98 in1015.2 mb 0.00 in0.0 mm 0.00 in/hr0.0 mm/hr 0.00 in0.0 mm
04:35 AM 71.1°F21.7°C 70.8°F21.6°C 99% 10.7 mph ENE17.2 kmh ENE 18.3 mph29.5 kmh 29.98 in1015.2 mb 0.00 in0.0 mm 0.00 in/hr0.0 mm/hr 0.00 in0.0 mm
04:40 AM 71.2°F21.8°C 71.0°F21.7°C 99% 13.0 mph ENE20.9 kmh ENE 22.8 mph36.7 kmh 29.98 in1015.2 mb 0.00 in0.0 mm 0.00 in/hr0.0 mm/hr 0.00 in0.0 mm
04:45 AM 71.2°F21.8°C 71.0°F21.7°C 99% 11.4 mph ENE18.3 kmh ENE 22.8 mph36.7 kmh 29.98 in1015.2 mb 0.00 in0.0 mm 0.00 in/hr0.0 mm/hr 0.00 in0.0 mm
04:50 AM 71.2°F21.8°C 71.0°F21.7°C 99% 9.8 mph ENE15.8 kmh ENE 19.0 mph30.6 kmh 29.98 in1015.2 mb 0.00 in0.0 mm 0.00 in/hr0.0 mm/hr 0.00 in0.0 mm
04:55 AM 71.4°F21.9°C 71.2°F21.8°C 99% 10.7 mph ENE17.2 kmh ENE 19.0 mph30.6 kmh 29.98 in1015.2 mb 0.00 in0.0 mm 0.00 in/hr0.0 mm/hr 0.00 in0.0 mm
05:00 AM 71.4°F21.9°C 71.2°F21.8°C 99% 9.8 mph ENE15.8 kmh ENE 19.7 mph31.7 kmh 29.98 in1015.2 mb 0.00 in0.0 mm 0.00 in/hr0.0 mm/hr 0.00 in0.0 mm
05:05 AM 71.4°F21.9°C 71.2°F21.8°C 99% 9.8 mph NE15.8 kmh NE 19.7 mph31.7 kmh 29.98 in1015.2 mb 0.00 in0.0 mm 0.00 in/hr0.0 mm/hr 0.00 in0.0 mm
05:10 AM 71.2°F21.8°C 71.0°F21.7°C 99% 13.6 mph NE21.9 kmh NE 17.4 mph28.0 kmh 29.98 in1015.2 mb 0.00 in0.0 mm 0.00 in/hr0.0 mm/hr 0.00 in0.0 mm
05:15 AM 71.2°F21.8°C 71.0°F21.7°C 99% 11.4 mph E18.3 kmh E 19.0 mph30.6 kmh 29.98 in1015.2 mb 0.00 in0.0 mm 0.00 in/hr0.0 mm/hr 0.00 in0.0 mm
05:20 AM 71.4°F21.9°C 71.2°F21.8°C 99% 10.7 mph E17.2 kmh E 19.0 mph30.6 kmh 29.98 in1015.2 mb 0.00 in0.0 mm 0.00 in/hr0.0 mm/hr 0.00 in0.0 mm
05:25 AM 71.2°F21.8°C 71.0°F21.7°C 99% 15.9 mph E25.6 kmh E 22.1 mph35.6 kmh 29.97 in1014.9 mb 0.00 in0.0 mm 0.00 in/hr0.0 mm/hr 0.00 in0.0 mm
05:30 AM 71.4°F21.9°C 71.2°F21.8°C 99% 11.4 mph ENE18.3 kmh ENE 22.1 mph35.6 kmh 29.97 in1014.9 mb 0.00 in0.0 mm 0.00 in/hr0.0 mm/hr 0.00 in0.0 mm
05:35 AM 71.4°F21.9°C 71.2°F21.8°C 99% 13.6 mph ENE21.9 kmh ENE 22.1 mph35.6 kmh 29.98 in1015.2 mb 0.00 in0.0 mm 0.00 in/hr0.0 mm/hr 0.00 in0.0 mm
05:40 AM 71.2°F21.8°C 71.0°F21.7°C 99% 11.4 mph E18.3 kmh E 22.1 mph35.6 kmh 29.98 in1015.2 mb 0.00 in0.0 mm 0.00 in/hr0.0 mm/hr 0.00 in0.0 mm
05:45 AM 71.4°F21.9°C 71.2°F21.8°C 99% 16.8 mph E27.0 kmh E 22.1 mph35.6 kmh 29.98 in1015.2 mb 0.00 in0.0 mm 0.00 in/hr0.0 mm/hr 0.00 in0.0 mm
05:50 AM 71.6°F22.0°C 71.3°F21.8°C 99% 8.3 mph E13.4 kmh E 20.6 mph33.2 kmh 29.98 in1015.2 mb 0.00 in0.0 mm 0.00 in/hr0.0 mm/hr 0.00 in0.0 mm
05:55 AM 71.6°F22.0°C 71.3°F21.8°C 99% 13.0 mph ENE20.9 kmh ENE 24.4 mph39.3 kmh 29.98 in1015.2 mb 0.00 in0.0 mm 0.00 in/hr0.0 mm/hr 0.00 in0.0 mm
06:00 AM 71.6°F22.0°C 71.3°F21.8°C 99% 13.6 mph ENE21.9 kmh ENE 24.4 mph39.3 kmh 29.97 in1014.9 mb 0.00 in0.0 mm 0.00 in/hr0.0 mm/hr 0.00 in0.0 mm
06:05 AM 71.4°F21.9°C 71.2°F21.8°C 99% 13.0 mph E20.9 kmh E 23.5 mph37.8 kmh 29.98 in1015.2 mb 0.00 in0.0 mm 0.00 in/hr0.0 mm/hr 0.00 in0.0 mm
06:10 AM 71.6°F22.0°C 71.3°F21.8°C 99% 9.2 mph E14.8 kmh E 20.6 mph33.2 kmh 29.98 in1015.2 mb 0.00 in0.0 mm 0.00 in/hr0.0 mm/hr 0.00 in0.0 mm
06:15 AM 71.6°F22.0°C 71.3°F21.8°C 99% 9.2 mph E14.8 kmh E 20.6 mph33.2 kmh 29.98 in1015.2 mb 0.00 in0.0 mm 0.00 in/hr0.0 mm/hr 0.00 in0.0 mm
06:20 AM 71.6°F22.0°C 71.3°F21.8°C 99% 11.4 mph E18.3 kmh E 19.7 mph31.7 kmh 29.99 in1015.6 mb 0.00 in0.0 mm 0.00 in/hr0.0 mm/hr 0.00 in0.0 mm
06:25 AM 71.6°F22.0°C 71.3°F21.8°C 99% 12.1 mph E19.5 kmh E 20.6 mph33.2 kmh 29.98 in1015.2 mb 0.00 in0.0 mm 0.00 in/hr0.0 mm/hr 0.00 in0.0 mm
06:30 AM 71.6°F22.0°C 71.3°F21.8°C 99% 13.0 mph ENE20.9 kmh ENE 20.6 mph33.2 kmh 29.98 in1015.2 mb 0.00 in0.0 mm 0.00 in/hr0.0 mm/hr 0.00 in0.0 mm
06:35 AM 71.6°F22.0°C 71.3°F21.8°C 99% 15.2 mph E24.5 kmh E 19.0 mph30.6 kmh 29.99 in1015.6 mb 0.00 in0.0 mm 0.00 in/hr0.0 mm/hr 0.00 in0.0 mm
06:40 AM 71.6°F22.0°C 71.3°F21.8°C 99% 10.7 mph E17.2 kmh E 20.6 mph33.2 kmh 29.99 in1015.6 mb 0.00 in0.0 mm 0.00 in/hr0.0 mm/hr 0.00 in0.0 mm
06:45 AM 71.8°F22.1°C 71.5°F21.9°C 99% 13.0 mph E20.9 kmh E 21.3 mph34.3 kmh 29.99 in1015.6 mb 0.00 in0.0 mm 0.00 in/hr0.0 mm/hr 0.00 in0.0 mm
06:50 AM 71.6°F22.0°C 71.3°F21.8°C 99% 13.0 mph E20.9 kmh E 21.3 mph34.3 kmh 29.99 in1015.6 mb 0.00 in0.0 mm 0.00 in/hr0.0 mm/hr 0.00 in0.0 mm
06:55 AM 71.8°F22.1°C 71.5°F21.9°C 99% 13.6 mph E21.9 kmh E 20.6 mph33.2 kmh 29.99 in1015.6 mb 0.00 in0.0 mm 0.00 in/hr0.0 mm/hr 0.00 in0.0 mm
07:00 AM 71.8°F22.1°C 71.5°F21.9°C 99% 11.4 mph E18.3 kmh E 20.6 mph33.2 kmh 29.99 in1015.6 mb 0.00 in0.0 mm 0.00 in/hr0.0 mm/hr 0.00 in0.0 mm
07:05 AM 71.8°F22.1°C 71.5°F21.9°C 99% 12.1 mph E19.5 kmh E 20.6 mph33.2 kmh 30.00 in1015.9 mb 0.00 in0.0 mm 0.00 in/hr0.0 mm/hr 0.00 in0.0 mm
07:10 AM 71.8°F22.1°C 71.5°F21.9°C 99% 10.7 mph E17.2 kmh E 19.7 mph31.7 kmh 30.00 in1015.9 mb 0.00 in0.0 mm 0.00 in/hr0.0 mm/hr 0.00 in0.0 mm
07:15 AM 71.8°F22.1°C 71.5°F21.9°C 99% 11.4 mph E18.3 kmh E 20.6 mph33.2 kmh 30.00 in1015.9 mb 0.00 in0.0 mm 0.00 in/hr0.0 mm/hr 0.00 in0.0 mm
07:20 AM 71.8°F22.1°C 71.5°F21.9°C 99% 13.6 mph E21.9 kmh E 20.6 mph33.2 kmh 30.00 in1015.9 mb 0.00 in0.0 mm 0.00 in/hr0.0 mm/hr 0.00 in0.0 mm
07:25 AM 72.0°F22.2°C 71.7°F22.1°C 99% 9.8 mph E15.8 kmh E 16.8 mph27.0 kmh 30.00 in1015.9 mb 0.00 in0.0 mm 0.00 in/hr0.0 mm/hr 0.00 in0.0 mm
07:30 AM 72.0°F22.2°C 71.7°F22.1°C 99% 12.1 mph E19.5 kmh E 16.8 mph27.0 kmh 30.00 in1015.9 mb 0.00 in0.0 mm 0.00 in/hr0.0 mm/hr 0.00 in0.0 mm
07:35 AM 72.0°F22.2°C 71.7°F22.1°C 99% 13.0 mph E20.9 kmh E 19.0 mph30.6 kmh 30.00 in1015.9 mb 0.00 in0.0 mm 0.00 in/hr0.0 mm/hr 0.00 in0.0 mm
07:40 AM 72.0°F22.2°C 71.7°F22.1°C 99% 15.2 mph E24.5 kmh E 19.7 mph31.7 kmh 30.00 in1015.9 mb 0.00 in0.0 mm 0.00 in/hr0.0 mm/hr 0.00 in0.0 mm
07:45 AM 72.1°F22.3°C 71.9°F22.2°C 99% 12.1 mph E19.5 kmh E 19.7 mph31.7 kmh 30.00 in1015.9 mb 0.00 in0.0 mm 0.00 in/hr0.0 mm/hr 0.00 in0.0 mm
07:50 AM 72.1°F22.3°C 71.9°F22.2°C 99% 16.8 mph E27.0 kmh E 23.5 mph37.8 kmh 30.00 in1015.9 mb 0.00 in0.0 mm 0.00 in/hr0.0 mm/hr 0.00 in0.0 mm
07:55 AM 72.1°F22.3°C 71.9°F22.2°C 99% 9.8 mph E15.8 kmh E 23.5 mph37.8 kmh 30.00 in1015.9 mb 0.00 in0.0 mm 0.00 in/hr0.0 mm/hr 0.00 in0.0 mm
08:00 AM 72.1°F22.3°C 71.9°F22.2°C 99% 13.6 mph E21.9 kmh E 23.5 mph37.8 kmh 30.00 in1015.9 mb 0.00 in0.0 mm 0.00 in/hr0.0 mm/hr 0.00 in0.0 mm
08:05 AM 72.1°F22.3°C 71.9°F22.2°C 99% 13.6 mph E21.9 kmh E 20.6 mph33.2 kmh 30.00 in1015.9 mb 0.00 in0.0 mm 0.00 in/hr0.0 mm/hr 0.00 in0.0 mm
08:10 AM 72.1°F22.3°C 71.9°F22.2°C 99% 14.5 mph E23.3 kmh E 19.0 mph30.6 kmh 29.99 in1015.6 mb 0.00 in0.0 mm 0.00 in/hr0.0 mm/hr 0.00 in0.0 mm
08:15 AM 72.3°F22.4°C 72.1°F22.3°C 99% 11.4 mph ESE18.3 kmh ESE 19.0 mph30.6 kmh 30.00 in1015.9 mb 0.00 in0.0 mm 0.00 in/hr0.0 mm/hr 0.00 in0.0 mm
08:20 AM 72.5°F22.5°C 72.2°F22.3°C 99% 9.2 mph E14.8 kmh E 19.0 mph30.6 kmh 29.99 in1015.6 mb 0.00 in0.0 mm 0.00 in/hr0.0 mm/hr 0.00 in0.0 mm
08:25 AM 72.5°F22.5°C 72.2°F22.3°C 99% 8.3 mph E13.4 kmh E 17.4 mph28.0 kmh 29.99 in1015.6 mb 0.00 in0.0 mm 0.00 in/hr0.0 mm/hr 0.00 in0.0 mm
08:30 AM 72.5°F22.5°C 72.2°F22.3°C 99% 12.1 mph E19.5 kmh E 17.4 mph28.0 kmh 29.98 in1015.2 mb 0.00 in0.0 mm 0.00 in/hr0.0 mm/hr 0.00 in0.0 mm
08:35 AM 72.7°F22.6°C 72.4°F22.4°C 99% 13.6 mph E21.9 kmh E 17.4 mph28.0 kmh 29.98 in1015.2 mb 0.00 in0.0 mm 0.00 in/hr0.0 mm/hr 0.00 in0.0 mm
08:40 AM 72.7°F22.6°C 72.4°F22.4°C 99% 10.7 mph E17.2 kmh E 18.3 mph29.5 kmh 29.98 in1015.2 mb 0.00 in0.0 mm 0.00 in/hr0.0 mm/hr 0.00 in0.0 mm
08:45 AM 72.9°F22.7°C 72.6°F22.6°C 99% 13.0 mph E20.9 kmh E 22.8 mph36.7 kmh 29.98 in1015.2 mb 0.00 in0.0 mm 0.00 in/hr0.0 mm/hr 0.00 in0.0 mm
08:50 AM 72.7°F22.6°C 72.4°F22.4°C 99% 9.8 mph E15.8 kmh E 22.8 mph36.7 kmh 29.98 in1015.2 mb 0.00 in0.0 mm 0.00 in/hr0.0 mm/hr 0.00 in0.0 mm
08:55 AM 72.7°F22.6°C 72.4°F22.4°C 99% 9.2 mph E14.8 kmh E 21.3 mph34.3 kmh 29.98 in1015.2 mb 0.00 in0.0 mm 0.00 in/hr0.0 mm/hr 0.00 in0.0 mm
09:00 AM 72.7°F22.6°C 72.4°F22.4°C 99% 12.1 mph E19.5 kmh E 21.3 mph34.3 kmh 29.98 in1015.2 mb 0.00 in0.0 mm 0.00 in/hr0.0 mm/hr 0.00 in0.0 mm
09:05 AM 72.7°F22.6°C 72.4°F22.4°C 99% 12.1 mph SE19.5 kmh SE 18.3 mph29.5 kmh 29.98 in1015.2 mb 0.00 in0.0 mm 0.00 in/hr0.0 mm/hr 0.00 in0.0 mm
09:10 AM 72.9°F22.7°C 72.6°F22.6°C 99% 10.7 mph SE17.2 kmh SE 17.4 mph28.0 kmh 29.97 in1014.9 mb 0.00 in0.0 mm 0.00 in/hr0.0 mm/hr 0.00 in0.0 mm
09:15 AM 73.0°F22.8°C 72.8°F22.7°C 99% 10.7 mph E17.2 kmh E 18.3 mph29.5 kmh 29.97 in1014.9 mb 0.00 in0.0 mm 0.00 in/hr0.0 mm/hr 0.00 in0.0 mm
09:20 AM 73.0°F22.8°C 72.8°F22.7°C 99% 12.1 mph E19.5 kmh E 18.3 mph29.5 kmh 29.96 in1014.6 mb 0.00 in0.0 mm 0.00 in/hr0.0 mm/hr 0.00 in0.0 mm
09:25 AM 73.2°F22.9°C 73.0°F22.8°C 99% 12.1 mph E19.5 kmh E 21.3 mph34.3 kmh 29.97 in1014.9 mb 0.00 in0.0 mm 0.00 in/hr0.0 mm/hr 0.00 in0.0 mm
09:30 AM 73.2°F22.9°C 73.0°F22.8°C 99% 8.3 mph ESE13.4 kmh ESE 21.3 mph34.3 kmh 29.97 in1014.9 mb 0.00 in0.0 mm 0.00 in/hr0.0 mm/hr 0.00 in0.0 mm
09:35 AM 73.2°F22.9°C 73.0°F22.8°C 99% 13.0 mph E20.9 kmh E 19.7 mph31.7 kmh 29.97 in1014.9 mb 0.00 in0.0 mm 0.00 in/hr0.0 mm/hr 0.00 in0.0 mm
09:40 AM 73.4°F23.0°C 73.2°F22.9°C 99% 10.7 mph E17.2 kmh E 21.3 mph34.3 kmh 29.97 in1014.9 mb 0.00 in0.0 mm 0.00 in/hr0.0 mm/hr 0.00 in0.0 mm
09:45 AM 73.4°F23.0°C 73.2°F22.9°C 99% 10.7 mph E17.2 kmh E 21.3 mph34.3 kmh 29.96 in1014.6 mb 0.00 in0.0 mm 0.00 in/hr0.0 mm/hr 0.00 in0.0 mm
09:50 AM 73.4°F23.0°C 73.2°F22.9°C 99% 11.4 mph E18.3 kmh E 19.0 mph30.6 kmh 29.97 in1014.9 mb 0.00 in0.0 mm 0.00 in/hr0.0 mm/hr 0.00 in0.0 mm
09:55 AM 73.6°F23.1°C 73.3°F22.9°C 99% 11.4 mph E18.3 kmh E 19.0 mph30.6 kmh 29.97 in1014.9 mb 0.00 in0.0 mm 0.00 in/hr0.0 mm/hr 0.00 in0.0 mm
10:00 AM 73.8°F23.2°C 73.5°F23.1°C 99% 9.2 mph ESE14.8 kmh ESE 22.8 mph36.7 kmh 29.97 in1014.9 mb 0.00 in0.0 mm 0.00 in/hr0.0 mm/hr 0.00 in0.0 mm
10:05 AM 73.8°F23.2°C 73.5°F23.1°C 99% 11.4 mph E18.3 kmh E 22.8 mph36.7 kmh 29.97 in1014.9 mb 0.00 in0.0 mm 0.00 in/hr0.0 mm/hr 0.00 in0.0 mm
10:10 AM 73.8°F23.2°C 73.5°F23.1°C 99% 6.9 mph E11.1 kmh E 17.4 mph28.0 kmh 29.97 in1014.9 mb 0.00 in0.0 mm 0.00 in/hr0.0 mm/hr 0.00 in0.0 mm
10:15 AM 73.6°F23.1°C 73.3°F22.9°C 99% 9.8 mph E15.8 kmh E 16.8 mph27.0 kmh 29.98 in1015.2 mb 0.00 in0.0 mm 0.00 in/hr0.0 mm/hr 0.00 in0.0 mm
10:20 AM 73.6°F23.1°C 73.3°F22.9°C 99% 10.7 mph E17.2 kmh E 18.3 mph29.5 kmh 29.98 in1015.2 mb 0.00 in0.0 mm 0.00 in/hr0.0 mm/hr 0.00 in0.0 mm
10:25 AM 73.6°F23.1°C 73.3°F22.9°C 99% 9.2 mph E14.8 kmh E 18.3 mph29.5 kmh 29.98 in1015.2 mb 0.00 in0.0 mm 0.00 in/hr0.0 mm/hr 0.00 in0.0 mm
10:30 AM 73.8°F23.2°C 73.5°F23.1°C 99% 8.3 mph E13.4 kmh E 14.5 mph23.3 kmh 29.98 in1015.2 mb 0.00 in0.0 mm 0.00 in/hr0.0 mm/hr 0.00 in0.0 mm
10:35 AM 73.8°F23.2°C 73.5°F23.1°C 99% 9.2 mph E14.8 kmh E 13.6 mph21.9 kmh 29.97 in1014.9 mb 0.00 in0.0 mm 0.00 in/hr0.0 mm/hr 0.00 in0.0 mm
10:40 AM 73.6°F23.1°C 73.3°F22.9°C 99% 6.9 mph E11.1 kmh E 15.9 mph25.6 kmh 29.98 in1015.2 mb 0.00 in0.0 mm 0.00 in/hr0.0 mm/hr 0.00 in0.0 mm
10:45 AM 73.6°F23.1°C 73.3°F22.9°C 99% 6.9 mph E11.1 kmh E 15.9 mph25.6 kmh 29.97 in1014.9 mb 0.00 in0.0 mm 0.00 in/hr0.0 mm/hr 0.00 in0.0 mm
10:50 AM 73.9°F23.3°C 73.7°F23.2°C 99% 7.6 mph ESE12.2 kmh ESE 13.6 mph21.9 kmh 29.97 in1014.9 mb 0.00 in0.0 mm 0.00 in/hr0.0 mm/hr 0.00 in0.0 mm
10:55 AM 73.9°F23.3°C 73.7°F23.2°C 99% 6.9 mph E11.1 kmh E 13.6 mph21.9 kmh 29.98 in1015.2 mb 0.00 in0.0 mm 0.00 in/hr0.0 mm/hr 0.00 in0.0 mm
11:00 AM 74.1°F23.4°C 73.9°F23.3°C 99% 7.6 mph ESE12.2 kmh ESE 14.5 mph23.3 kmh 29.98 in1015.2 mb 0.00 in0.0 mm 0.00 in/hr0.0 mm/hr 0.00 in0.0 mm
11:05 AM 74.3°F23.5°C 74.1°F23.4°C 99% 6.9 mph ESE11.1 kmh ESE 14.5 mph23.3 kmh 29.97 in1014.9 mb 0.00 in0.0 mm 0.00 in/hr0.0 mm/hr 0.00 in0.0 mm
11:10 AM 74.3°F23.5°C 74.1°F23.4°C 99% 9.8 mph ESE15.8 kmh ESE 15.2 mph24.5 kmh 29.97 in1014.9 mb 0.00 in0.0 mm 0.00 in/hr0.0 mm/hr 0.00 in0.0 mm
11:15 AM 74.5°F23.6°C 74.2°F23.4°C 99% 6.0 mph E9.7 kmh E 15.2 mph24.5 kmh 29.97 in1014.9 mb 0.00 in0.0 mm 0.00 in/hr0.0 mm/hr 0.00 in0.0 mm
11:20 AM 74.7°F23.7°C 74.4°F23.6°C 99% 7.6 mph E12.2 kmh E 15.2 mph24.5 kmh 29.97 in1014.9 mb 0.00 in0.0 mm 0.00 in/hr0.0 mm/hr 0.00 in0.0 mm
11:25 AM 74.8°F23.8°C 74.6°F23.7°C 99% 5.4 mph ESE8.7 kmh ESE 12.1 mph19.5 kmh 29.97 in1014.9 mb 0.00 in0.0 mm 0.00 in/hr0.0 mm/hr 0.00 in0.0 mm
11:30 AM 74.8°F23.8°C 74.6°F23.7°C 99% 6.9 mph ESE11.1 kmh ESE 13.6 mph21.9 kmh 29.97 in1014.9 mb 0.00 in0.0 mm 0.00 in/hr0.0 mm/hr 0.00 in0.0 mm
11:35 AM 75.0°F23.9°C 74.8°F23.8°C 99% 6.0 mph ESE9.7 kmh ESE 14.5 mph23.3 kmh 29.97 in1014.9 mb 0.00 in0.0 mm 0.00 in/hr0.0 mm/hr 0.00 in0.0 mm
11:40 AM 75.0°F23.9°C 74.8°F23.8°C 99% 7.6 mph ESE12.2 kmh ESE 14.5 mph23.3 kmh 29.97 in1014.9 mb 0.00 in0.0 mm 0.00 in/hr0.0 mm/hr 0.00 in0.0 mm
11:45 AM 75.2°F24.0°C 75.0°F23.9°C 99% 8.3 mph ESE13.4 kmh ESE 14.5 mph23.3 kmh 29.97 in1014.9 mb 0.00 in0.0 mm 0.00 in/hr0.0 mm/hr 0.00 in0.0 mm
11:50 AM 75.2°F24.0°C 75.0°F23.9°C 99% 6.0 mph SE9.7 kmh SE 14.5 mph23.3 kmh 29.98 in1015.2 mb 0.00 in0.0 mm 0.00 in/hr0.0 mm/hr 0.00 in0.0 mm
11:55 AM 75.4°F24.1°C 75.1°F23.9°C 99% 5.4 mph SE8.7 kmh SE 11.4 mph18.3 kmh 29.98 in1015.2 mb 0.00 in0.0 mm 0.00 in/hr0.0 mm/hr 0.00 in0.0 mm
12:00 PM 75.6°F24.2°C 75.3°F24.1°C 99% 3.1 mph SE5.0 kmh SE 11.4 mph18.3 kmh 29.97 in1014.9 mb 0.00 in0.0 mm 0.00 in/hr0.0 mm/hr 0.00 in0.0 mm
12:05 PM 75.6°F24.2°C 75.3°F24.1°C 99% 6.0 mph SE9.7 kmh SE 10.7 mph17.2 kmh 29.98 in1015.2 mb 0.00 in0.0 mm 0.00 in/hr0.0 mm/hr 0.00 in0.0 mm
12:10 PM 75.6°F24.2°C 75.3°F24.1°C 99% 6.0 mph SE9.7 kmh SE 10.7 mph17.2 kmh 29.97 in1014.9 mb 0.00 in0.0 mm 0.00 in/hr0.0 mm/hr 0.00 in0.0 mm
12:15 PM 75.6°F24.2°C 75.3°F24.1°C 99% 6.0 mph ESE9.7 kmh ESE 11.4 mph18.3 kmh 29.96 in1014.6 mb 0.00 in0.0 mm 0.00 in/hr0.0 mm/hr 0.00 in0.0 mm
12:20 PM 75.7°F24.3°C 75.5°F24.2°C 99% 5.4 mph ESE8.7 kmh ESE 12.1 mph19.5 kmh 29.97 in1014.9 mb 0.00 in0.0 mm 0.00 in/hr0.0 mm/hr 0.00 in0.0 mm
12:25 PM 75.6°F24.2°C 75.3°F24.1°C 99% 5.4 mph ESE8.7 kmh ESE 12.1 mph19.5 kmh 29.96 in1014.6 mb 0.00 in0.0 mm 0.00 in/hr0.0 mm/hr 0.00 in0.0 mm
12:30 PM 75.7°F24.3°C 75.5°F24.2°C 99% 8.3 mph SE13.4 kmh SE 10.7 mph17.2 kmh 29.96 in1014.6 mb 0.00 in0.0 mm 0.00 in/hr0.0 mm/hr 0.00 in0.0 mm
12:35 PM 75.9°F24.4°C 75.7°F24.3°C 99% 5.4 mph SE8.7 kmh SE 10.7 mph17.2 kmh 29.96 in1014.6 mb 0.00 in0.0 mm 0.00 in/hr0.0 mm/hr 0.00 in0.0 mm
12:40 PM 75.9°F24.4°C 75.7°F24.3°C 99% 8.3 mph ESE13.4 kmh ESE 11.4 mph18.3 kmh 29.96 in1014.6 mb 0.00 in0.0 mm 0.00 in/hr0.0 mm/hr 0.00 in0.0 mm
12:45 PM 76.1°F24.5°C 75.9°F24.4°C 99% 6.9 mph ESE11.1 kmh ESE 11.4 mph18.3 kmh 29.95 in1014.2 mb 0.00 in0.0 mm 0.00 in/hr0.0 mm/hr 0.00 in0.0 mm
12:50 PM 76.1°F24.5°C 75.9°F24.4°C 99% 6.9 mph E11.1 kmh E 11.4 mph18.3 kmh 29.96 in1014.6 mb 0.00 in0.0 mm 0.00 in/hr0.0 mm/hr 0.00 in0.0 mm
12:55 PM 76.5°F24.7°C 76.2°F24.6°C 99% 6.9 mph ESE11.1 kmh ESE 11.4 mph18.3 kmh 29.95 in1014.2 mb 0.00 in0.0 mm 0.00 in/hr0.0 mm/hr 0.00 in0.0 mm
01:00 PM 76.6°F24.8°C 76.4°F24.7°C 99% 8.3 mph SE13.4 kmh SE 11.4 mph18.3 kmh 29.95 in1014.2 mb 0.00 in0.0 mm 0.00 in/hr0.0 mm/hr 0.00 in0.0 mm
01:05 PM 76.8°F24.9°C 76.6°F24.8°C 99% 5.4 mph SE8.7 kmh SE 12.1 mph19.5 kmh 29.96 in1014.6 mb 0.00 in0.0 mm 0.00 in/hr0.0 mm/hr 0.00 in0.0 mm
01:10 PM 77.0°F25.0°C 76.1°F24.5°C 97% 8.3 mph SE13.4 kmh SE 12.1 mph19.5 kmh 29.96 in1014.6 mb 0.00 in0.0 mm 0.00 in/hr0.0 mm/hr 0.00 in0.0 mm
01:15 PM 77.2°F25.1°C 76.3°F24.6°C 97% 5.4 mph SE8.7 kmh SE 10.7 mph17.2 kmh 29.95 in1014.2 mb 0.00 in0.0 mm 0.00 in/hr0.0 mm/hr 0.00 in0.0 mm
01:20 PM 77.4°F25.2°C 76.2°F24.6°C 96% 6.9 mph SE11.1 kmh SE 10.7 mph17.2 kmh 29.95 in1014.2 mb 0.00 in0.0 mm 0.00 in/hr0.0 mm/hr 0.00 in0.0 mm
01:25 PM 77.4°F25.2°C 75.9°F24.4°C 95% 6.9 mph SE11.1 kmh SE 10.7 mph17.2 kmh 29.95 in1014.2 mb 0.00 in0.0 mm 0.00 in/hr0.0 mm/hr 0.00 in0.0 mm
01:30 PM 77.5°F25.3°C 76.1°F24.5°C 95% 8.3 mph SE13.4 kmh SE 16.8 mph27.0 kmh 29.95 in1014.2 mb 0.00 in0.0 mm 0.00 in/hr0.0 mm/hr 0.00 in0.0 mm
01:35 PM 77.5°F25.3°C 75.7°F24.3°C 94% 9.2 mph SE14.8 kmh SE 16.8 mph27.0 kmh 29.96 in1014.6 mb 0.00 in0.0 mm 0.00 in/hr0.0 mm/hr 0.00 in0.0 mm
01:40 PM 77.5°F25.3°C 76.1°F24.5°C 95% 7.6 mph SE12.2 kmh SE 13.0 mph20.9 kmh 29.96 in1014.6 mb 0.00 in0.0 mm 0.00 in/hr0.0 mm/hr 0.00 in0.0 mm
01:45 PM 77.4°F25.2°C 76.5°F24.7°C 97% 5.4 mph SE8.7 kmh SE 13.0 mph20.9 kmh 29.95 in1014.2 mb 0.00 in0.0 mm 0.00 in/hr0.0 mm/hr 0.00 in0.0 mm
01:50 PM 77.4°F25.2°C 76.5°F24.7°C 97% 6.0 mph SE9.7 kmh SE 11.4 mph18.3 kmh 29.95 in1014.2 mb 0.00 in0.0 mm 0.00 in/hr0.0 mm/hr 0.00 in0.0 mm
01:55 PM 76.6°F24.8°C 76.4°F24.7°C 99% 6.9 mph SE11.1 kmh SE 12.1 mph19.5 kmh 29.95 in1014.2 mb 0.01 in0.3 mm 0.12 in/hr3.0 mm/hr 0.01 in0.3 mm
02:00 PM 76.3°F24.6°C 76.0°F24.4°C 99% 6.0 mph SSE9.7 kmh SSE 12.1 mph19.5 kmh 29.95 in1014.2 mb 0.02 in0.5 mm 0.01 in/hr0.3 mm/hr 0.02 in0.5 mm
02:05 PM 76.1°F24.5°C 75.9°F24.4°C 99% 6.9 mph SE11.1 kmh SE 9.8 mph15.8 kmh 29.94 in1013.9 mb 0.02 in0.5 mm 0.00 in/hr0.0 mm/hr 0.02 in0.5 mm
02:10 PM 75.7°F24.3°C 75.5°F24.2°C 99% 9.2 mph SE14.8 kmh SE 13.0 mph20.9 kmh 29.93 in1013.5 mb 0.02 in0.5 mm 0.00 in/hr0.0 mm/hr 0.02 in0.5 mm
02:15 PM 75.7°F24.3°C 75.5°F24.2°C 99% 8.3 mph SE13.4 kmh SE 14.5 mph23.3 kmh 29.94 in1013.9 mb 0.02 in0.5 mm 0.00 in/hr0.0 mm/hr 0.02 in0.5 mm
02:20 PM 74.7°F23.7°C 72.2°F22.3°C 92% 29.8 mph S48.0 kmh S 39.6 mph63.7 kmh 29.98 in1015.2 mb 0.02 in0.5 mm 0.00 in/hr0.0 mm/hr 0.02 in0.5 mm
02:25 PM 70.5°F21.4°C 70.0°F21.1°C 98% 15.9 mph SW25.6 kmh SW 39.6 mph63.7 kmh 29.97 in1014.9 mb 0.18 in4.6 mm 1.92 in/hr48.8 mm/hr 0.18 in4.6 mm
02:30 PM 69.1°F20.6°C 68.8°F20.4°C 99% 13.6 mph SW21.9 kmh SW 39.6 mph63.7 kmh 29.97 in1014.9 mb 0.22 in5.6 mm 0.48 in/hr12.2 mm/hr 0.22 in5.6 mm
02:35 PM 68.4°F20.2°C 68.1°F20.1°C 99% 12.1 mph SSW19.5 kmh SSW 22.8 mph36.7 kmh 29.98 in1015.2 mb 0.27 in6.9 mm 0.60 in/hr15.2 mm/hr 0.27 in6.9 mm
02:40 PM 68.4°F20.2°C 68.1°F20.1°C 99% 8.3 mph S13.4 kmh S 17.4 mph28.0 kmh 29.97 in1014.9 mb 0.27 in6.9 mm 0.00 in/hr0.0 mm/hr 0.27 in6.9 mm
02:45 PM 68.4°F20.2°C 68.1°F20.1°C 99% 6.9 mph S11.1 kmh S 13.6 mph21.9 kmh 29.97 in1014.9 mb 0.28 in7.1 mm 0.12 in/hr3.0 mm/hr 0.28 in7.1 mm
02:50 PM 68.4°F20.2°C 68.1°F20.1°C 99% 4.5 mph S7.2 kmh S 11.4 mph18.3 kmh 29.96 in1014.6 mb 0.27 in6.9 mm 0.00 in/hr0.0 mm/hr 0.28 in7.1 mm
02:55 PM 68.5°F20.3°C 68.3°F20.2°C 99% 6.9 mph S11.1 kmh S 9.8 mph15.8 kmh 29.97 in1014.9 mb 0.27 in6.9 mm 0.00 in/hr0.0 mm/hr 0.28 in7.1 mm
03:05 PM 68.7°F20.4°C 68.5°F20.3°C 99% 4.5 mph S7.2 kmh S 9.8 mph15.8 kmh 29.96 in1014.6 mb 0.27 in6.9 mm 0.00 in/hr0.0 mm/hr 0.30 in7.6 mm
03:10 PM 68.9°F20.5°C 68.6°F20.3°C 99% 7.6 mph S12.2 kmh S 10.7 mph17.2 kmh 29.97 in1014.9 mb 0.27 in6.9 mm 0.00 in/hr0.0 mm/hr 0.30 in7.6 mm
03:15 PM 69.1°F20.6°C 68.8°F20.4°C 99% 6.9 mph S11.1 kmh S 10.7 mph17.2 kmh 29.95 in1014.2 mb 0.27 in6.9 mm 0.00 in/hr0.0 mm/hr 0.30 in7.6 mm
03:20 PM 69.1°F20.6°C 68.8°F20.4°C 99% 6.9 mph S11.1 kmh S 9.8 mph15.8 kmh 29.95 in1014.2 mb 0.27 in6.9 mm 0.00 in/hr0.0 mm/hr 0.30 in7.6 mm
03:25 PM 69.1°F20.6°C 68.8°F20.4°C 99% 5.4 mph SSE8.7 kmh SSE 9.2 mph14.8 kmh 29.94 in1013.9 mb 0.12 in3.0 mm 0.00 in/hr0.0 mm/hr 0.30 in7.6 mm
03:30 PM 69.4°F20.8°C 69.2°F20.7°C 99% 6.9 mph S11.1 kmh S 10.7 mph17.2 kmh 29.94 in1013.9 mb 0.07 in1.8 mm 0.00 in/hr0.0 mm/hr 0.30 in7.6 mm
03:35 PM 69.6°F20.9°C 69.4°F20.8°C 99% 7.6 mph S12.2 kmh S 11.4 mph18.3 kmh 29.93 in1013.5 mb 0.02 in0.5 mm 0.00 in/hr0.0 mm/hr 0.30 in7.6 mm
03:40 PM 69.8°F21.0°C 69.5°F20.8°C 99% 5.4 mph S8.7 kmh S 11.4 mph18.3 kmh 29.93 in1013.5 mb 0.02 in0.5 mm 0.00 in/hr0.0 mm/hr 0.30 in7.6 mm
03:45 PM 70.2°F21.2°C 69.9°F21.1°C 99% 7.6 mph S12.2 kmh S 10.7 mph17.2 kmh 29.93 in1013.5 mb 0.01 in0.3 mm 0.00 in/hr0.0 mm/hr 0.30 in7.6 mm
03:50 PM 70.2°F21.2°C 69.9°F21.1°C 99% 6.9 mph S11.1 kmh S 13.0 mph20.9 kmh 29.94 in1013.9 mb 0.01 in0.3 mm 0.00 in/hr0.0 mm/hr 0.30 in7.6 mm
03:55 PM 70.3°F21.3°C 70.1°F21.2°C 99% 6.9 mph SSE11.1 kmh SSE 13.0 mph20.9 kmh 29.93 in1013.5 mb 0.01 in0.3 mm 0.00 in/hr0.0 mm/hr 0.30 in7.6 mm
04:00 PM 70.3°F21.3°C 70.1°F21.2°C 99% 8.3 mph S13.4 kmh S 11.4 mph18.3 kmh 29.93 in1013.5 mb 0.02 in0.5 mm 0.01 in/hr0.3 mm/hr 0.31 in7.9 mm
04:05 PM 70.3°F21.3°C 70.1°F21.2°C 99% 9.2 mph S14.8 kmh S 12.1 mph19.5 kmh 29.93 in1013.5 mb 0.01 in0.3 mm 0.00 in/hr0.0 mm/hr 0.31 in7.9 mm
04:10 PM 70.3°F21.3°C 70.1°F21.2°C 99% 9.2 mph S14.8 kmh S 12.1 mph19.5 kmh 29.93 in1013.5 mb 0.01 in0.3 mm 0.00 in/hr0.0 mm/hr 0.31 in7.9 mm
04:15 PM 70.3°F21.3°C 70.1°F21.2°C 99% 7.6 mph S12.2 kmh S 13.6 mph21.9 kmh 29.93 in1013.5 mb 0.01 in0.3 mm 0.00 in/hr0.0 mm/hr 0.31 in7.9 mm
04:20 PM 70.5°F21.4°C 70.3°F21.3°C 99% 7.6 mph S12.2 kmh S 13.6 mph21.9 kmh 29.93 in1013.5 mb 0.01 in0.3 mm 0.00 in/hr0.0 mm/hr 0.31 in7.9 mm
04:25 PM 70.5°F21.4°C 70.3°F21.3°C 99% 8.3 mph S13.4 kmh S 11.4 mph18.3 kmh 29.93 in1013.5 mb 0.01 in0.3 mm 0.00 in/hr0.0 mm/hr 0.31 in7.9 mm
04:30 PM 70.7°F21.5°C 70.4°F21.3°C 99% 6.0 mph S9.7 kmh S 11.4 mph18.3 kmh 29.93 in1013.5 mb 0.01 in0.3 mm 0.00 in/hr0.0 mm/hr 0.31 in7.9 mm
04:35 PM 70.5°F21.4°C 70.3°F21.3°C 99% 9.2 mph S14.8 kmh S 13.0 mph20.9 kmh 29.93 in1013.5 mb 0.01 in0.3 mm 0.00 in/hr0.0 mm/hr 0.31 in7.9 mm
04:40 PM 70.7°F21.5°C 70.4°F21.3°C 99% 7.6 mph S12.2 kmh S 13.0 mph20.9 kmh 29.92 in1013.2 mb 0.01 in0.3 mm 0.00 in/hr0.0 mm/hr 0.31 in7.9 mm
04:45 PM 70.9°F21.6°C 70.6°F21.4°C 99% 6.0 mph SSE9.7 kmh SSE 10.7 mph17.2 kmh 29.93 in1013.5 mb 0.01 in0.3 mm 0.00 in/hr0.0 mm/hr 0.31 in7.9 mm
04:50 PM 70.7°F21.5°C 70.4°F21.3°C 99% 8.3 mph SE13.4 kmh SE 11.4 mph18.3 kmh 29.92 in1013.2 mb 0.02 in0.5 mm 0.12 in/hr3.0 mm/hr 0.32 in8.1 mm
04:55 PM 70.7°F21.5°C 70.4°F21.3°C 99% 6.9 mph SE11.1 kmh SE 11.4 mph18.3 kmh 29.93 in1013.5 mb 0.02 in0.5 mm 0.00 in/hr0.0 mm/hr 0.32 in8.1 mm
05:00 PM 70.9°F21.6°C 70.6°F21.4°C 99% 8.3 mph SE13.4 kmh SE 10.7 mph17.2 kmh 29.92 in1013.2 mb 0.01 in0.3 mm 0.00 in/hr0.0 mm/hr 0.32 in8.1 mm
05:05 PM 70.7°F21.5°C 70.4°F21.3°C 99% 6.0 mph SE9.7 kmh SE 10.7 mph17.2 kmh 29.92 in1013.2 mb 0.01 in0.3 mm 0.00 in/hr0.0 mm/hr 0.32 in8.1 mm
05:10 PM 70.7°F21.5°C 70.4°F21.3°C 99% 6.0 mph SE9.7 kmh SE 10.7 mph17.2 kmh 29.92 in1013.2 mb 0.01 in0.3 mm 0.00 in/hr0.0 mm/hr 0.32 in8.1 mm
05:15 PM 70.9°F21.6°C 70.6°F21.4°C 99% 8.3 mph SE13.4 kmh SE 13.0 mph20.9 kmh 29.91 in1012.9 mb 0.01 in0.3 mm 0.00 in/hr0.0 mm/hr 0.32 in8.1 mm
05:20 PM 71.1°F21.7°C 70.8°F21.6°C 99% 6.9 mph S11.1 kmh S 13.0 mph20.9 kmh 29.91 in1012.9 mb 0.01 in0.3 mm 0.00 in/hr0.0 mm/hr 0.32 in8.1 mm
05:25 PM 71.1°F21.7°C 70.8°F21.6°C 99% 5.4 mph SSE8.7 kmh SSE 10.7 mph17.2 kmh 29.91 in1012.9 mb 0.01 in0.3 mm 0.00 in/hr0.0 mm/hr 0.32 in8.1 mm
05:30 PM 71.1°F21.7°C 70.8°F21.6°C 99% 4.5 mph SE7.2 kmh SE 9.2 mph14.8 kmh 29.91 in1012.9 mb 0.01 in0.3 mm 0.00 in/hr0.0 mm/hr 0.32 in8.1 mm
05:35 PM 70.7°F21.5°C 70.4°F21.3°C 99% 4.5 mph SE7.2 kmh SE 8.3 mph13.4 kmh 29.91 in1012.9 mb 0.01 in0.3 mm 0.00 in/hr0.0 mm/hr 0.32 in8.1 mm
05:40 PM 70.7°F21.5°C 70.4°F21.3°C 99% 3.1 mph SE5.0 kmh SE 7.6 mph12.2 kmh 29.91 in1012.9 mb 0.01 in0.3 mm 0.00 in/hr0.0 mm/hr 0.32 in8.1 mm
05:45 PM 70.7°F21.5°C 70.4°F21.3°C 99% 5.4 mph SE8.7 kmh SE 7.6 mph12.2 kmh 29.91 in1012.9 mb 0.00 in0.0 mm 0.00 in/hr0.0 mm/hr 0.32 in8.1 mm
05:50 PM 70.5°F21.4°C 70.3°F21.3°C 99% 5.4 mph SE8.7 kmh SE 9.2 mph14.8 kmh 29.91 in1012.9 mb 0.00 in0.0 mm 0.00 in/hr0.0 mm/hr 0.32 in8.1 mm
05:55 PM 70.3°F21.3°C 70.1°F21.2°C 99% 6.0 mph SE9.7 kmh SE 9.2 mph14.8 kmh 29.91 in1012.9 mb 0.00 in0.0 mm 0.00 in/hr0.0 mm/hr 0.32 in8.1 mm
06:00 PM 70.3°F21.3°C 70.1°F21.2°C 99% 8.3 mph SE13.4 kmh SE 11.4 mph18.3 kmh 29.91 in1012.9 mb 0.01 in0.3 mm 0.01 in/hr0.3 mm/hr 0.33 in8.4 mm
06:05 PM 70.3°F21.3°C 70.1°F21.2°C 99% 6.0 mph SE9.7 kmh SE 11.4 mph18.3 kmh 29.91 in1012.9 mb 0.01 in0.3 mm 0.00 in/hr0.0 mm/hr 0.33 in8.4 mm
06:10 PM 70.3°F21.3°C 70.1°F21.2°C 99% 3.8 mph SE6.1 kmh SE 11.4 mph18.3 kmh 29.90 in1012.5 mb 0.01 in0.3 mm 0.00 in/hr0.0 mm/hr 0.33 in8.4 mm
06:15 PM 70.2°F21.2°C 69.9°F21.1°C 99% 3.1 mph SE5.0 kmh SE 9.8 mph15.8 kmh 29.90 in1012.5 mb 0.01 in0.3 mm 0.00 in/hr0.0 mm/hr 0.33 in8.4 mm
06:20 PM 70.2°F21.2°C 69.9°F21.1°C 99% 3.1 mph SE5.0 kmh SE 9.8 mph15.8 kmh 29.90 in1012.5 mb 0.01 in0.3 mm 0.00 in/hr0.0 mm/hr 0.33 in8.4 mm
06:25 PM 70.2°F21.2°C 69.9°F21.1°C 99% 3.1 mph SE5.0 kmh SE 6.9 mph11.1 kmh 29.89 in1012.2 mb 0.01 in0.3 mm 0.00 in/hr0.0 mm/hr 0.33 in8.4 mm
06:30 PM 70.0°F21.1°C 69.7°F20.9°C 99% 2.2 mph SE3.5 kmh SE 6.0 mph9.7 kmh 29.89 in1012.2 mb 0.01 in0.3 mm 0.00 in/hr0.0 mm/hr 0.33 in8.4 mm
06:35 PM 70.0°F21.1°C 69.7°F20.9°C 99% Calm Calm 6.0 mph9.7 kmh 29.89 in1012.2 mb 0.01 in0.3 mm 0.00 in/hr0.0 mm/hr 0.33 in8.4 mm
06:40 PM 70.0°F21.1°C 69.7°F20.9°C 99% Calm Calm -- 29.88 in1011.9 mb 0.01 in0.3 mm 0.00 in/hr0.0 mm/hr 0.33 in8.4 mm
06:45 PM 70.0°F21.1°C 69.7°F20.9°C 99% 4.5 mph SE7.2 kmh SE 6.9 mph11.1 kmh 29.88 in1011.9 mb 0.01 in0.3 mm 0.00 in/hr0.0 mm/hr 0.33 in8.4 mm
06:50 PM 70.0°F21.1°C 69.7°F20.9°C 99% 2.2 mph SE3.5 kmh SE 6.9 mph11.1 kmh 29.89 in1012.2 mb 0.01 in0.3 mm 0.00 in/hr0.0 mm/hr 0.33 in8.4 mm
06:55 PM 70.0°F21.1°C 69.7°F20.9°C 99% Calm Calm 6.9 mph11.1 kmh 29.88 in1011.9 mb 0.01 in0.3 mm 0.00 in/hr0.0 mm/hr 0.33 in8.4 mm
07:00 PM 70.0°F21.1°C 69.7°F20.9°C 99% Calm Calm 4.5 mph7.2 kmh 29.88 in1011.9 mb 0.00 in0.0 mm 0.00 in/hr0.0 mm/hr 0.33 in8.4 mm
07:05 PM 70.0°F21.1°C 69.7°F20.9°C 99% 3.1 mph SE5.0 kmh SE 5.4 mph8.7 kmh 29.88 in1011.9 mb 0.00 in0.0 mm 0.00 in/hr0.0 mm/hr 0.33 in8.4 mm
07:10 PM 70.0°F21.1°C 69.7°F20.9°C 99% 3.1 mph SE5.0 kmh SE 5.4 mph8.7 kmh 29.88 in1011.9 mb 0.00 in0.0 mm 0.00 in/hr0.0 mm/hr 0.33 in8.4 mm
07:15 PM 70.0°F21.1°C 69.7°F20.9°C 99% 3.1 mph SE5.0 kmh SE 5.4 mph8.7 kmh 29.88 in1011.9 mb 0.00 in0.0 mm 0.00 in/hr0.0 mm/hr 0.33 in8.4 mm
07:20 PM 70.0°F21.1°C 69.7°F20.9°C 99% 4.5 mph SE7.2 kmh SE 6.0 mph9.7 kmh 29.88 in1011.9 mb 0.00 in0.0 mm 0.00 in/hr0.0 mm/hr 0.33 in8.4 mm
07:25 PM 69.8°F21.0°C 69.5°F20.8°C 99% 3.8 mph SE6.1 kmh SE 6.0 mph9.7 kmh 29.88 in1011.9 mb 0.00 in0.0 mm 0.00 in/hr0.0 mm/hr 0.33 in8.4 mm
07:30 PM 70.0°F21.1°C 69.7°F20.9°C 99% 3.1 mph SE5.0 kmh SE 6.0 mph9.7 kmh 29.88 in1011.9 mb 0.00 in0.0 mm 0.00 in/hr0.0 mm/hr 0.33 in8.4 mm
07:35 PM 69.8°F21.0°C 69.5°F20.8°C 99% 2.2 mph SE3.5 kmh SE 6.0 mph9.7 kmh 29.88 in1011.9 mb 0.00 in0.0 mm 0.00 in/hr0.0 mm/hr 0.33 in8.4 mm
07:40 PM 69.8°F21.0°C 69.5°F20.8°C 99% 2.2 mph SE3.5 kmh SE 5.4 mph8.7 kmh 29.88 in1011.9 mb 0.00 in0.0 mm 0.00 in/hr0.0 mm/hr 0.33 in8.4 mm
07:45 PM 69.8°F21.0°C 69.5°F20.8°C 99% Calm Calm 5.4 mph8.7 kmh 29.88 in1011.9 mb 0.00 in0.0 mm 0.00 in/hr0.0 mm/hr 0.33 in8.4 mm
07:50 PM 69.6°F20.9°C 69.4°F20.8°C 99% 3.1 mph S5.0 kmh S 4.5 mph7.2 kmh 29.88 in1011.9 mb 0.00 in0.0 mm 0.00 in/hr0.0 mm/hr 0.33 in8.4 mm
07:55 PM 69.6°F20.9°C 69.4°F20.8°C 99% 3.1 mph SSE5.0 kmh SSE 4.5 mph7.2 kmh 29.88 in1011.9 mb 0.00 in0.0 mm 0.00 in/hr0.0 mm/hr 0.33 in8.4 mm
08:00 PM 69.6°F20.9°C 69.4°F20.8°C 99% Calm Calm 4.5 mph7.2 kmh 29.88 in1011.9 mb 0.00 in0.0 mm 0.00 in/hr0.0 mm/hr 0.33 in8.4 mm
08:05 PM 69.6°F20.9°C 69.4°F20.8°C 99% Calm Calm 4.5 mph7.2 kmh 29.88 in1011.9 mb 0.00 in0.0 mm 0.00 in/hr0.0 mm/hr 0.33 in8.4 mm
08:10 PM 69.6°F20.9°C 69.4°F20.8°C 99% Calm Calm -- 29.88 in1011.9 mb 0.00 in0.0 mm 0.00 in/hr0.0 mm/hr 0.33 in8.4 mm
08:15 PM 69.4°F20.8°C 69.2°F20.7°C 99% Calm Calm -- 29.88 in1011.9 mb 0.00 in0.0 mm 0.00 in/hr0.0 mm/hr 0.33 in8.4 mm
08:20 PM 69.4°F20.8°C 69.2°F20.7°C 99% Calm Calm -- 29.88 in1011.9 mb 0.00 in0.0 mm 0.00 in/hr0.0 mm/hr 0.33 in8.4 mm
08:25 PM 69.3°F20.7°C 69.0°F20.6°C 99% Calm Calm -- 29.88 in1011.9 mb 0.00 in0.0 mm 0.00 in/hr0.0 mm/hr 0.33 in8.4 mm
08:30 PM 69.1°F20.6°C 68.8°F20.4°C 99% Calm Calm -- 29.89 in1012.2 mb 0.00 in0.0 mm 0.00 in/hr0.0 mm/hr 0.33 in8.4 mm
08:35 PM 69.1°F20.6°C 68.8°F20.4°C 99% Calm Calm -- 29.89 in1012.2 mb 0.00 in0.0 mm 0.00 in/hr0.0 mm/hr 0.33 in8.4 mm
08:40 PM 68.9°F20.5°C 68.6°F20.3°C 99% Calm Calm -- 29.88 in1011.9 mb 0.00 in0.0 mm 0.00 in/hr0.0 mm/hr 0.33 in8.4 mm
08:45 PM 68.9°F20.5°C 68.6°F20.3°C 99% Calm Calm -- 29.89 in1012.2 mb 0.00 in0.0 mm 0.00 in/hr0.0 mm/hr 0.33 in8.4 mm
08:50 PM 68.9°F20.5°C 68.6°F20.3°C 99% Calm Calm -- 29.88 in1011.9 mb 0.00 in0.0 mm 0.00 in/hr0.0 mm/hr 0.33 in8.4 mm
08:55 PM 68.7°F20.4°C 68.5°F20.3°C 99% Calm Calm -- 29.89 in1012.2 mb 0.00 in0.0 mm 0.00 in/hr0.0 mm/hr 0.33 in8.4 mm
09:00 PM 68.5°F20.3°C 68.3°F20.2°C 99% Calm Calm -- 29.89 in1012.2 mb 0.00 in0.0 mm 0.00 in/hr0.0 mm/hr 0.33 in8.4 mm
09:05 PM 68.4°F20.2°C 68.1°F20.1°C 99% Calm Calm -- 29.89 in1012.2 mb 0.00 in0.0 mm 0.00 in/hr0.0 mm/hr 0.33 in8.4 mm
09:10 PM 68.5°F20.3°C 68.3°F20.2°C 99% Calm Calm -- 29.89 in1012.2 mb 0.00 in0.0 mm 0.00 in/hr0.0 mm/hr 0.33 in8.4 mm
09:15 PM 68.5°F20.3°C 68.3°F20.2°C 99% Calm Calm -- 29.89 in1012.2 mb 0.00 in0.0 mm 0.00 in/hr0.0 mm/hr 0.33 in8.4 mm
09:20 PM 68.5°F20.3°C 68.3°F20.2°C 99% Calm Calm -- 29.89 in1012.2 mb 0.00 in0.0 mm 0.00 in/hr0.0 mm/hr 0.33 in8.4 mm
09:25 PM 68.5°F20.3°C 68.3°F20.2°C 99% Calm Calm -- 29.90 in1012.5 mb 0.00 in0.0 mm 0.00 in/hr0.0 mm/hr 0.33 in8.4 mm
09:30 PM 68.7°F20.4°C 68.5°F20.3°C 99% Calm Calm -- 29.90 in1012.5 mb 0.00 in0.0 mm 0.00 in/hr0.0 mm/hr 0.33 in8.4 mm
09:35 PM 68.9°F20.5°C 68.6°F20.3°C 99% Calm Calm -- 29.90 in1012.5 mb 0.00 in0.0 mm 0.00 in/hr0.0 mm/hr 0.33 in8.4 mm
09:40 PM 69.1°F20.6°C 68.8°F20.4°C 99% Calm Calm -- 29.90 in1012.5 mb 0.00 in0.0 mm 0.00 in/hr0.0 mm/hr 0.33 in8.4 mm
09:45 PM 68.7°F20.4°C 68.5°F20.3°C 99% Calm Calm -- 29.90 in1012.5 mb 0.00 in0.0 mm 0.00 in/hr0.0 mm/hr 0.33 in8.4 mm
09:50 PM 68.9°F20.5°C 68.6°F20.3°C 99% Calm Calm -- 29.90 in1012.5 mb 0.00 in0.0 mm 0.00 in/hr0.0 mm/hr 0.33 in8.4 mm
09:55 PM 69.1°F20.6°C 68.8°F20.4°C 99% Calm Calm -- 29.90 in1012.5 mb 0.00 in0.0 mm 0.00 in/hr0.0 mm/hr 0.33 in8.4 mm
10:00 PM 69.1°F20.6°C 68.8°F20.4°C 99% Calm Calm -- 29.91 in1012.9 mb 0.00 in0.0 mm 0.00 in/hr0.0 mm/hr 0.33 in8.4 mm
10:05 PM 68.9°F20.5°C 68.6°F20.3°C 99% Calm Calm -- 29.90 in1012.5 mb 0.00 in0.0 mm 0.00 in/hr0.0 mm/hr 0.33 in8.4 mm
10:10 PM 68.9°F20.5°C 68.6°F20.3°C 99% Calm Calm -- 29.90 in1012.5 mb 0.00 in0.0 mm 0.00 in/hr0.0 mm/hr 0.33 in8.4 mm
10:15 PM 68.7°F20.4°C 68.5°F20.3°C 99% Calm Calm -- 29.91 in1012.9 mb 0.00 in0.0 mm 0.00 in/hr0.0 mm/hr 0.33 in8.4 mm
10:20 PM 68.5°F20.3°C 68.3°F20.2°C 99% Calm Calm -- 29.91 in1012.9 mb 0.00 in0.0 mm 0.00 in/hr0.0 mm/hr 0.33 in8.4 mm
10:25 PM 68.5°F20.3°C 68.3°F20.2°C 99% Calm Calm -- 29.91 in1012.9 mb 0.00 in0.0 mm 0.00 in/hr0.0 mm/hr 0.33 in8.4 mm
10:30 PM 68.4°F20.2°C 68.1°F20.1°C 99% Calm Calm -- 29.91 in1012.9 mb 0.00 in0.0 mm 0.00 in/hr0.0 mm/hr 0.33 in8.4 mm
10:35 PM 68.5°F20.3°C 68.3°F20.2°C 99% Calm Calm -- 29.91 in1012.9 mb 0.00 in0.0 mm 0.00 in/hr0.0 mm/hr 0.33 in8.4 mm
10:40 PM 68.9°F20.5°C 68.6°F20.3°C 99% Calm Calm -- 29.91 in1012.9 mb 0.00 in0.0 mm 0.00 in/hr0.0 mm/hr 0.33 in8.4 mm
10:45 PM 68.9°F20.5°C 68.6°F20.3°C 99% 3.1 mph SE5.0 kmh SE 5.4 mph8.7 kmh 29.91 in1012.9 mb 0.00 in0.0 mm 0.00 in/hr0.0 mm/hr 0.33 in8.4 mm
10:50 PM 68.9°F20.5°C 68.6°F20.3°C 99% 4.5 mph SE7.2 kmh SE 6.9 mph11.1 kmh 29.91 in1012.9 mb 0.00 in0.0 mm 0.00 in/hr0.0 mm/hr 0.33 in8.4 mm
10:55 PM 69.1°F20.6°C 68.8°F20.4°C 99% 3.1 mph SE5.0 kmh SE 6.9 mph11.1 kmh 29.91 in1012.9 mb 0.00 in0.0 mm 0.00 in/hr0.0 mm/hr 0.33 in8.4 mm
11:00 PM 68.9°F20.5°C 68.6°F20.3°C 99% 3.1 mph SE5.0 kmh SE 6.0 mph9.7 kmh 29.91 in1012.9 mb 0.00 in0.0 mm 0.00 in/hr0.0 mm/hr 0.33 in8.4 mm
11:05 PM 68.9°F20.5°C 68.6°F20.3°C 99% 2.2 mph SSE3.5 kmh SSE 4.5 mph7.2 kmh 29.90 in1012.5 mb 0.00 in0.0 mm 0.00 in/hr0.0 mm/hr 0.33 in8.4 mm
11:10 PM 68.5°F20.3°C 68.3°F20.2°C 99% 2.2 mph SSE3.5 kmh SSE 4.5 mph7.2 kmh 29.90 in1012.5 mb 0.00 in0.0 mm 0.00 in/hr0.0 mm/hr 0.33 in8.4 mm
11:15 PM 68.7°F20.4°C 68.5°F20.3°C 99% 3.1 mph SE5.0 kmh SE 4.5 mph7.2 kmh 29.90 in1012.5 mb 0.00 in0.0 mm 0.00 in/hr0.0 mm/hr 0.33 in8.4 mm
11:20 PM 68.7°F20.4°C 68.5°F20.3°C 99% 2.2 mph SE3.5 kmh SE 4.5 mph7.2 kmh 29.90 in1012.5 mb 0.00 in0.0 mm 0.00 in/hr0.0 mm/hr 0.33 in8.4 mm
11:25 PM 68.7°F20.4°C 68.5°F20.3°C 99% 3.1 mph SE5.0 kmh SE 5.4 mph8.7 kmh 29.90 in1012.5 mb 0.00 in0.0 mm 0.00 in/hr0.0 mm/hr 0.33 in8.4 mm
11:30 PM 68.7°F20.4°C 68.5°F20.3°C 99% 3.1 mph SE5.0 kmh SE 6.0 mph9.7 kmh 29.91 in1012.9 mb 0.00 in0.0 mm 0.00 in/hr0.0 mm/hr 0.33 in8.4 mm
11:35 PM 68.9°F20.5°C 68.6°F20.3°C 99% Calm Calm 6.0 mph9.7 kmh 29.91 in1012.9 mb 0.00 in0.0 mm 0.00 in/hr0.0 mm/hr 0.33 in8.4 mm
11:40 PM 68.7°F20.4°C 68.5°F20.3°C 99% Calm Calm 6.0 mph9.7 kmh 29.90 in1012.5 mb 0.00 in0.0 mm 0.00 in/hr0.0 mm/hr 0.33 in8.4 mm
11:45 PM 68.9°F20.5°C 68.6°F20.3°C 99% 3.8 mph SE6.1 kmh SE 6.0 mph9.7 kmh 29.91 in1012.9 mb 0.00 in0.0 mm 0.00 in/hr0.0 mm/hr 0.33 in8.4 mm
11:50 PM 69.1°F20.6°C 68.8°F20.4°C 99% 3.1 mph SE5.0 kmh SE 6.0 mph9.7 kmh 29.91 in1012.9 mb 0.00 in0.0 mm 0.00 in/hr0.0 mm/hr 0.33 in8.4 mm
11:55 PM 68.9°F20.5°C 68.6°F20.3°C 99% Calm Calm 5.4 mph8.7 kmh 29.91 in1012.9 mb 0.00 in0.0 mm 0.00 in/hr0.0 mm/hr 0.33 in8.4 mm